LZB6815 LBSF-DTTJ
Flight info
| Callsign | LZB6815 |
|---|---|
| Flight time | 1h 56m |
| Altitude | 36000 |
| Route | NAPET LETNI DOBAR GOKEL CDC NELDA LPD M742 RALAK UG362 RIMSA UP623 JBA |
| Aircraft | A320/M-SDE3FGHIRWY/LB1 |
Departure
| Time | 2026-04-22 11:58 |
|---|---|
| Airport | Sofia Airport (LBSF) |
Arrival
| Time | 2026-04-22 13:54 |
|---|---|
| Airport | Djerba Zarzis International Airport (DTTJ) |
| Time | Latitude | Longitude | Altitude | Speed | Heading |
|---|---|---|---|---|---|
| 2026-04-22 11:27 | 42.69110 | 23.41283 | 1788 ft | 0 kts | 72° |
| 2026-04-22 11:49 | 42.69110 | 23.41280 | 1736 ft | 1 kts | 72° |
| 2026-04-22 11:49 | 42.69104 | 23.41258 | 1740 ft | 3 kts | 68° |
| 2026-04-22 11:49 | 42.69096 | 23.41233 | 1742 ft | 3 kts | 55° |
| 2026-04-22 11:49 | 42.69083 | 23.41215 | 1743 ft | 3 kts | 19° |
| 2026-04-22 11:50 | 42.69072 | 23.41212 | 1744 ft | 1 kts | 342° |
| 2026-04-22 11:50 | 42.69071 | 23.41212 | 1744 ft | 0 kts | 342° |
| 2026-04-22 11:52 | 42.69072 | 23.41212 | 1744 ft | 1 kts | 342° |
| 2026-04-22 11:52 | 42.69164 | 23.41171 | 1748 ft | 21 kts | 340° |
| 2026-04-22 11:53 | 42.69298 | 23.41167 | 1750 ft | 20 kts | 12° |
| 2026-04-22 11:53 | 42.69433 | 23.41206 | 1750 ft | 19 kts | 11° |
| 2026-04-22 11:53 | 42.69482 | 23.41345 | 1743 ft | 22 kts | 94° |
| 2026-04-22 11:53 | 42.69469 | 23.41569 | 1750 ft | 23 kts | 94° |
| 2026-04-22 11:54 | 42.69455 | 23.41791 | 1750 ft | 24 kts | 94° |
| 2026-04-22 11:54 | 42.69442 | 23.42023 | 1751 ft | 24 kts | 95° |
| 2026-04-22 11:54 | 42.69427 | 23.42264 | 1751 ft | 25 kts | 95° |
| 2026-04-22 11:54 | 42.69413 | 23.42501 | 1751 ft | 25 kts | 95° |
| 2026-04-22 11:55 | 42.69399 | 23.42727 | 1751 ft | 24 kts | 94° |
| 2026-04-22 11:55 | 42.69386 | 23.42958 | 1752 ft | 24 kts | 94° |
| 2026-04-22 11:55 | 42.69372 | 23.43195 | 1752 ft | 25 kts | 94° |
| 2026-04-22 11:55 | 42.69358 | 23.43427 | 1752 ft | 25 kts | 95° |
| 2026-04-22 11:56 | 42.69344 | 23.43656 | 1752 ft | 23 kts | 95° |
| 2026-04-22 11:56 | 42.69333 | 23.43850 | 1793 ft | 14 kts | 95° |
| 2026-04-22 11:56 | 42.69371 | 23.43942 | 1799 ft | 12 kts | 16° |
| 2026-04-22 11:56 | 42.69450 | 23.43953 | 1793 ft | 12 kts | 5° |
| 2026-04-22 11:57 | 42.69518 | 23.43889 | 1798 ft | 18 kts | 279° |
| 2026-04-22 11:57 | 42.69544 | 23.43476 | 1750 ft | 78 kts | 274° |
| 2026-04-22 11:57 | 42.69604 | 23.42462 | 1750 ft | 135 kts | 274° |
| 2026-04-22 11:57 | 42.69693 | 23.40981 | 1777 ft | 176 kts | 276° |
| 2026-04-22 11:58 | 42.69792 | 23.39355 | 2582 ft | 169 kts | 278° |
| 2026-04-22 11:58 | 42.70128 | 23.37821 | 3211 ft | 171 kts | 302° |
| 2026-04-22 11:58 | 42.70849 | 23.36505 | 3782 ft | 182 kts | 312° |
| 2026-04-22 11:58 | 42.71707 | 23.35105 | 4058 ft | 204 kts | 311° |
| 2026-04-22 11:59 | 42.72658 | 23.33528 | 4429 ft | 228 kts | 311° |
| 2026-04-22 11:59 | 42.73714 | 23.31768 | 4865 ft | 252 kts | 310° |
| 2026-04-22 11:59 | 42.74787 | 23.29810 | 5582 ft | 263 kts | 299° |
| 2026-04-22 11:59 | 42.75292 | 23.27407 | 6410 ft | 270 kts | 273° |
| 2026-04-22 12:00 | 42.74931 | 23.24903 | 7228 ft | 275 kts | 245° |
| 2026-04-22 12:00 | 42.73769 | 23.22821 | 8066 ft | 280 kts | 222° |
| 2026-04-22 12:00 | 42.72204 | 23.21234 | 8925 ft | 282 kts | 217° |
| 2026-04-22 12:00 | 42.70626 | 23.19692 | 9767 ft | 284 kts | 217° |
| 2026-04-22 12:01 | 42.68985 | 23.18090 | 10372 ft | 295 kts | 218° |
| 2026-04-22 12:01 | 42.67280 | 23.16417 | 10586 ft | 318 kts | 218° |
| 2026-04-22 12:01 | 42.65401 | 23.14571 | 10783 ft | 340 kts | 219° |
| 2026-04-22 12:01 | 42.63477 | 23.12680 | 11273 ft | 350 kts | 218° |
| 2026-04-22 12:02 | 42.61494 | 23.10737 | 11948 ft | 354 kts | 217° |
| 2026-04-22 12:02 | 42.59485 | 23.08775 | 12644 ft | 357 kts | 218° |
| 2026-04-22 12:02 | 42.57462 | 23.06801 | 13323 ft | 361 kts | 218° |
| 2026-04-22 12:02 | 42.55414 | 23.04806 | 13983 ft | 363 kts | 218° |
| 2026-04-22 12:03 | 42.53354 | 23.02798 | 14610 ft | 366 kts | 218° |
| 2026-04-22 12:03 | 42.51283 | 23.00779 | 15238 ft | 368 kts | 218° |
| 2026-04-22 12:03 | 42.49204 | 22.98755 | 15881 ft | 369 kts | 219° |
| 2026-04-22 12:03 | 42.47111 | 22.96722 | 16518 ft | 371 kts | 219° |
| 2026-04-22 12:04 | 42.45014 | 22.94682 | 17135 ft | 372 kts | 219° |
| 2026-04-22 12:04 | 42.42907 | 22.92633 | 17740 ft | 374 kts | 220° |
| 2026-04-22 12:04 | 42.40791 | 22.90577 | 18329 ft | 375 kts | 220° |
| 2026-04-22 12:04 | 42.38667 | 22.88515 | 18846 ft | 377 kts | 220° |
| 2026-04-22 12:05 | 42.36535 | 22.86448 | 19365 ft | 378 kts | 221° |
| 2026-04-22 12:05 | 42.34397 | 22.84379 | 19866 ft | 379 kts | 221° |
| 2026-04-22 12:05 | 42.32245 | 22.82298 | 20363 ft | 380 kts | 222° |
| 2026-04-22 12:05 | 42.30092 | 22.80217 | 20874 ft | 382 kts | 223° |
| 2026-04-22 12:06 | 42.27934 | 22.78129 | 21401 ft | 381 kts | 224° |
| 2026-04-22 12:06 | 42.25777 | 22.76045 | 21957 ft | 381 kts | 224° |
| 2026-04-22 12:06 | 42.23617 | 22.73965 | 22486 ft | 381 kts | 225° |
| 2026-04-22 12:06 | 42.21612 | 22.71704 | 22940 ft | 370 kts | 237° |
| 2026-04-22 12:07 | 42.20118 | 22.68938 | 23408 ft | 363 kts | 244° |
| 2026-04-22 12:07 | 42.18724 | 22.66107 | 23875 ft | 362 kts | 244° |
| 2026-04-22 12:07 | 42.17334 | 22.63277 | 24250 ft | 363 kts | 244° |
| 2026-04-22 12:07 | 42.15940 | 22.60437 | 24607 ft | 364 kts | 244° |
| 2026-04-22 12:08 | 42.14541 | 22.57588 | 24949 ft | 365 kts | 244° |
| 2026-04-22 12:08 | 42.13134 | 22.54729 | 25227 ft | 368 kts | 243° |
| 2026-04-22 12:08 | 42.12193 | 22.52823 | 25438 ft | 369 kts | 243° |
| 2026-04-22 12:08 | 42.10766 | 22.49936 | 25773 ft | 371 kts | 243° |
| 2026-04-22 12:09 | 42.09330 | 22.47032 | 26100 ft | 373 kts | 243° |
| 2026-04-22 12:09 | 42.07887 | 22.44117 | 26450 ft | 376 kts | 243° |
| 2026-04-22 12:09 | 42.06435 | 22.41188 | 26743 ft | 377 kts | 243° |
| 2026-04-22 12:09 | 42.04973 | 22.38244 | 27031 ft | 379 kts | 243° |
| 2026-04-22 12:10 | 42.03508 | 22.35288 | 27281 ft | 380 kts | 244° |
| 2026-04-22 12:10 | 42.02035 | 22.32321 | 27590 ft | 382 kts | 244° |
| 2026-04-22 12:10 | 42.00553 | 22.29342 | 27892 ft | 384 kts | 244° |
| 2026-04-22 12:10 | 41.99062 | 22.26344 | 28071 ft | 388 kts | 244° |
| 2026-04-22 12:11 | 41.97560 | 22.23324 | 28318 ft | 390 kts | 244° |
| 2026-04-22 12:11 | 41.96044 | 22.20286 | 28600 ft | 392 kts | 244° |
| 2026-04-22 12:11 | 41.94520 | 22.17236 | 28896 ft | 394 kts | 244° |
| 2026-04-22 12:11 | 41.92994 | 22.14185 | 29243 ft | 393 kts | 244° |
| 2026-04-22 12:12 | 41.91469 | 22.11143 | 29643 ft | 392 kts | 245° |
| 2026-04-22 12:12 | 41.89951 | 22.08124 | 30080 ft | 389 kts | 245° |
| 2026-04-22 12:12 | 41.88438 | 22.05119 | 30441 ft | 388 kts | 244° |
| 2026-04-22 12:12 | 41.86925 | 22.02118 | 30732 ft | 388 kts | 244° |
| 2026-04-22 12:13 | 41.85415 | 21.99115 | 30948 ft | 388 kts | 244° |
| 2026-04-22 12:13 | 41.83908 | 21.96112 | 31225 ft | 389 kts | 244° |
| 2026-04-22 12:13 | 41.82398 | 21.93107 | 31531 ft | 388 kts | 244° |
| 2026-04-22 12:13 | 41.80887 | 21.90109 | 31844 ft | 387 kts | 244° |
| 2026-04-22 12:14 | 41.79381 | 21.87120 | 32153 ft | 387 kts | 243° |
| 2026-04-22 12:14 | 41.77877 | 21.84137 | 32461 ft | 386 kts | 243° |
| 2026-04-22 12:14 | 41.76376 | 21.81164 | 32779 ft | 385 kts | 243° |
| 2026-04-22 12:14 | 41.74876 | 21.78194 | 33046 ft | 386 kts | 243° |
| 2026-04-22 12:15 | 41.73367 | 21.75202 | 33230 ft | 388 kts | 243° |
| 2026-04-22 12:15 | 41.71850 | 21.72203 | 33387 ft | 389 kts | 243° |
| 2026-04-22 12:15 | 41.70335 | 21.69222 | 33793 ft | 386 kts | 243° |
| 2026-04-22 12:15 | 41.68831 | 21.66268 | 34141 ft | 384 kts | 243° |
| 2026-04-22 12:16 | 41.67326 | 21.63319 | 34364 ft | 383 kts | 243° |
| 2026-04-22 12:16 | 41.65824 | 21.60370 | 34591 ft | 384 kts | 243° |
| 2026-04-22 12:16 | 41.64323 | 21.57421 | 34764 ft | 384 kts | 243° |
| 2026-04-22 12:16 | 41.62817 | 21.54459 | 34903 ft | 386 kts | 243° |
| 2026-04-22 12:17 | 41.61305 | 21.51485 | 35105 ft | 387 kts | 243° |
| 2026-04-22 12:17 | 41.59790 | 21.48515 | 35317 ft | 387 kts | 243° |
| 2026-04-22 12:17 | 41.58271 | 21.45540 | 35511 ft | 388 kts | 243° |
| 2026-04-22 12:17 | 41.56751 | 21.42568 | 35650 ft | 389 kts | 243° |
| 2026-04-22 12:18 | 41.55222 | 21.39586 | 35816 ft | 389 kts | 243° |
| 2026-04-22 12:18 | 41.53691 | 21.36603 | 35980 ft | 390 kts | 243° |
| 2026-04-22 12:18 | 41.50608 | 21.30593 | 36057 ft | 395 kts | 243° |
| 2026-04-22 12:19 | 41.47487 | 21.24520 | 36051 ft | 405 kts | 243° |
| 2026-04-22 12:19 | 41.44268 | 21.18273 | 36051 ft | 412 kts | 242° |
| 2026-04-22 12:20 | 41.41000 | 21.11972 | 36049 ft | 414 kts | 242° |
| 2026-04-22 12:20 | 41.37726 | 21.05660 | 36042 ft | 414 kts | 243° |
| 2026-04-22 12:21 | 41.34457 | 20.99358 | 36030 ft | 414 kts | 243° |
| 2026-04-22 12:21 | 41.31186 | 20.93048 | 36028 ft | 414 kts | 242° |
| 2026-04-22 12:22 | 41.27905 | 20.86752 | 35988 ft | 414 kts | 242° |
| 2026-04-22 12:22 | 41.24620 | 20.80466 | 36018 ft | 414 kts | 243° |
| 2026-04-22 12:23 | 41.21334 | 20.74176 | 36027 ft | 414 kts | 243° |
| 2026-04-22 12:23 | 41.18044 | 20.67899 | 36032 ft | 414 kts | 242° |
| 2026-04-22 12:24 | 41.14746 | 20.61628 | 36009 ft | 414 kts | 242° |
| 2026-04-22 12:24 | 41.11447 | 20.55362 | 35973 ft | 415 kts | 242° |
| 2026-04-22 12:25 | 41.08142 | 20.49091 | 35983 ft | 415 kts | 242° |
| 2026-04-22 12:25 | 41.04833 | 20.42828 | 36003 ft | 415 kts | 243° |
| 2026-04-22 12:26 | 41.01525 | 20.36577 | 35989 ft | 414 kts | 243° |
| 2026-04-22 12:26 | 40.98241 | 20.30385 | 35980 ft | 413 kts | 243° |
| 2026-04-22 12:27 | 40.94928 | 20.24162 | 35979 ft | 413 kts | 243° |
| 2026-04-22 12:27 | 40.91620 | 20.17948 | 35973 ft | 413 kts | 243° |
| 2026-04-22 12:28 | 40.88309 | 20.11737 | 35974 ft | 413 kts | 243° |
| 2026-04-22 12:28 | 40.84988 | 20.05522 | 35964 ft | 414 kts | 242° |
| 2026-04-22 12:29 | 40.81658 | 19.99313 | 35934 ft | 415 kts | 242° |
| 2026-04-22 12:29 | 40.78318 | 19.93108 | 35936 ft | 415 kts | 242° |
| 2026-04-22 12:30 | 40.73305 | 19.83793 | 35947 ft | 415 kts | 242° |
| 2026-04-22 12:31 | 40.69961 | 19.77593 | 35949 ft | 415 kts | 242° |
| 2026-04-22 12:31 | 40.66604 | 19.71393 | 35931 ft | 417 kts | 242° |
| 2026-04-22 12:32 | 40.63234 | 19.65167 | 35950 ft | 418 kts | 242° |
| 2026-04-22 12:32 | 40.58163 | 19.55823 | 35964 ft | 418 kts | 242° |
| 2026-04-22 12:33 | 40.54776 | 19.49606 | 35982 ft | 418 kts | 242° |
| 2026-04-22 12:33 | 40.51384 | 19.43393 | 35945 ft | 419 kts | 242° |
| 2026-04-22 12:34 | 40.48003 | 19.37220 | 35964 ft | 419 kts | 242° |
| 2026-04-22 12:34 | 40.44598 | 19.31000 | 35966 ft | 419 kts | 242° |
| 2026-04-22 12:35 | 40.41191 | 19.24788 | 35982 ft | 419 kts | 242° |
| 2026-04-22 12:35 | 40.37783 | 19.18581 | 35982 ft | 419 kts | 242° |
| 2026-04-22 12:36 | 40.34361 | 19.12382 | 35964 ft | 420 kts | 242° |
| 2026-04-22 12:36 | 40.30934 | 19.06175 | 35963 ft | 421 kts | 242° |
| 2026-04-22 12:37 | 40.27500 | 18.99960 | 35975 ft | 422 kts | 242° |
| 2026-04-22 12:37 | 40.24049 | 18.93740 | 35991 ft | 422 kts | 242° |
| 2026-04-22 12:38 | 40.20591 | 18.87521 | 35978 ft | 423 kts | 242° |
| 2026-04-22 12:38 | 40.17129 | 18.81298 | 35989 ft | 423 kts | 242° |
| 2026-04-22 12:39 | 40.11923 | 18.71964 | 35974 ft | 424 kts | 242° |
| 2026-04-22 12:40 | 40.08464 | 18.65778 | 35985 ft | 425 kts | 242° |
| 2026-04-22 12:40 | 40.04977 | 18.59552 | 35989 ft | 425 kts | 242° |
| 2026-04-22 12:41 | 40.01484 | 18.53335 | 35979 ft | 425 kts | 242° |
| 2026-04-22 12:41 | 39.97975 | 18.47114 | 35978 ft | 426 kts | 242° |
| 2026-04-22 12:42 | 39.94467 | 18.40892 | 35966 ft | 426 kts | 242° |
| 2026-04-22 12:42 | 39.90949 | 18.34654 | 35976 ft | 428 kts | 242° |
| 2026-04-22 12:43 | 39.87417 | 18.28406 | 35958 ft | 429 kts | 242° |
| 2026-04-22 12:43 | 39.83870 | 18.22154 | 35973 ft | 430 kts | 242° |
| 2026-04-22 12:44 | 39.80312 | 18.15893 | 35978 ft | 431 kts | 242° |
| 2026-04-22 12:44 | 39.76745 | 18.09627 | 35988 ft | 431 kts | 242° |
| 2026-04-22 12:45 | 39.73175 | 18.03358 | 35992 ft | 431 kts | 242° |
| 2026-04-22 12:45 | 39.69592 | 17.97103 | 35960 ft | 432 kts | 241° |
| 2026-04-22 12:46 | 39.66002 | 17.90840 | 35969 ft | 433 kts | 241° |
| 2026-04-22 12:46 | 39.62406 | 17.84576 | 35987 ft | 433 kts | 241° |
| 2026-04-22 12:47 | 39.58800 | 17.78311 | 35992 ft | 434 kts | 241° |
| 2026-04-22 12:47 | 39.55190 | 17.72045 | 36010 ft | 434 kts | 241° |
| 2026-04-22 12:48 | 39.51573 | 17.65779 | 35972 ft | 434 kts | 240° |
| 2026-04-22 12:48 | 39.47978 | 17.59560 | 35988 ft | 435 kts | 240° |
| 2026-04-22 12:49 | 39.44349 | 17.53294 | 35999 ft | 435 kts | 240° |
| 2026-04-22 12:49 | 39.40718 | 17.47036 | 36007 ft | 435 kts | 240° |
| 2026-04-22 12:50 | 39.37078 | 17.40785 | 36018 ft | 435 kts | 240° |
| 2026-04-22 12:50 | 39.33431 | 17.34536 | 36027 ft | 435 kts | 240° |
| 2026-04-22 12:51 | 39.29788 | 17.28295 | 36026 ft | 435 kts | 240° |
| 2026-04-22 12:51 | 39.26139 | 17.22062 | 36032 ft | 435 kts | 240° |
| 2026-04-22 12:52 | 39.22484 | 17.15835 | 36025 ft | 435 kts | 240° |
| 2026-04-22 12:52 | 39.18828 | 17.09611 | 36001 ft | 435 kts | 240° |
| 2026-04-22 12:53 | 39.15189 | 17.03436 | 35986 ft | 436 kts | 239° |
| 2026-04-22 12:53 | 39.11522 | 16.97217 | 36000 ft | 437 kts | 239° |
| 2026-04-22 12:54 | 39.07844 | 16.90985 | 36003 ft | 437 kts | 239° |
| 2026-04-22 12:54 | 39.04156 | 16.84765 | 36010 ft | 437 kts | 239° |
| 2026-04-22 12:55 | 39.01083 | 16.79600 | 35999 ft | 438 kts | 239° |
| 2026-04-22 12:55 | 38.96756 | 16.72309 | 36006 ft | 439 kts | 239° |
| 2026-04-22 12:56 | 38.93046 | 16.66076 | 36016 ft | 439 kts | 238° |
| 2026-04-22 12:56 | 38.89332 | 16.59848 | 36021 ft | 439 kts | 238° |
| 2026-04-22 12:57 | 38.85614 | 16.53640 | 36020 ft | 439 kts | 238° |
| 2026-04-22 12:57 | 38.81894 | 16.47431 | 35977 ft | 439 kts | 238° |
| 2026-04-22 12:58 | 38.78164 | 16.41216 | 35984 ft | 440 kts | 238° |
| 2026-04-22 12:58 | 38.74885 | 16.36201 | 35990 ft | 447 kts | 229° |
| 2026-04-22 12:59 | 38.69334 | 16.30175 | 36002 ft | 451 kts | 226° |
| 2026-04-22 12:59 | 38.65309 | 16.25851 | 35964 ft | 451 kts | 226° |
| 2026-04-22 13:00 | 38.60508 | 16.20678 | 35971 ft | 451 kts | 226° |
| 2026-04-22 13:00 | 38.55699 | 16.15504 | 35979 ft | 452 kts | 226° |
| 2026-04-22 13:01 | 38.50877 | 16.10331 | 35988 ft | 453 kts | 225° |
| 2026-04-22 13:01 | 38.46046 | 16.05171 | 35975 ft | 453 kts | 225° |
| 2026-04-22 13:02 | 38.41200 | 15.99999 | 35994 ft | 455 kts | 225° |
| 2026-04-22 13:02 | 38.36385 | 15.94859 | 36001 ft | 454 kts | 225° |
| 2026-04-22 13:03 | 38.31539 | 15.89704 | 35999 ft | 454 kts | 225° |
| 2026-04-22 13:03 | 38.26690 | 15.84546 | 35983 ft | 454 kts | 225° |
| 2026-04-22 13:04 | 38.21839 | 15.79391 | 35982 ft | 455 kts | 225° |
| 2026-04-22 13:04 | 38.16968 | 15.74246 | 35989 ft | 455 kts | 225° |
| 2026-04-22 13:05 | 38.12097 | 15.69104 | 36001 ft | 455 kts | 225° |
| 2026-04-22 13:05 | 38.07232 | 15.63966 | 35999 ft | 455 kts | 224° |
| 2026-04-22 13:06 | 38.02354 | 15.58837 | 35995 ft | 455 kts | 224° |
| 2026-04-22 13:06 | 37.97476 | 15.53720 | 36005 ft | 455 kts | 224° |
| 2026-04-22 13:07 | 37.92601 | 15.48619 | 36013 ft | 454 kts | 224° |
| 2026-04-22 13:07 | 37.87735 | 15.43521 | 36016 ft | 454 kts | 224° |
| 2026-04-22 13:08 | 37.82877 | 15.38431 | 36012 ft | 453 kts | 224° |
| 2026-04-22 13:08 | 37.78015 | 15.33354 | 36022 ft | 453 kts | 224° |
| 2026-04-22 13:09 | 37.73160 | 15.28292 | 36006 ft | 452 kts | 224° |
| 2026-04-22 13:09 | 37.68332 | 15.23275 | 36009 ft | 452 kts | 224° |
| 2026-04-22 13:10 | 37.63474 | 15.18238 | 36002 ft | 452 kts | 224° |
| 2026-04-22 13:10 | 37.58619 | 15.13207 | 36005 ft | 451 kts | 224° |
| 2026-04-22 13:11 | 37.53769 | 15.08183 | 36009 ft | 451 kts | 224° |
| 2026-04-22 13:11 | 37.48918 | 15.03177 | 36016 ft | 451 kts | 224° |
| 2026-04-22 13:12 | 37.44062 | 14.98176 | 36014 ft | 451 kts | 224° |
| 2026-04-22 13:12 | 37.39209 | 14.93188 | 36019 ft | 451 kts | 224° |
| 2026-04-22 13:13 | 37.34356 | 14.88200 | 36016 ft | 450 kts | 224° |
| 2026-04-22 13:13 | 37.29506 | 14.83221 | 36006 ft | 450 kts | 224° |
| 2026-04-22 13:14 | 37.24649 | 14.78255 | 35987 ft | 450 kts | 224° |
| 2026-04-22 13:14 | 37.19793 | 14.73292 | 35991 ft | 450 kts | 224° |
| 2026-04-22 13:15 | 37.14936 | 14.68345 | 35991 ft | 450 kts | 224° |
| 2026-04-22 13:15 | 37.10078 | 14.63399 | 35987 ft | 449 kts | 224° |
| 2026-04-22 13:16 | 37.05229 | 14.58461 | 35986 ft | 449 kts | 224° |
| 2026-04-22 13:16 | 37.00374 | 14.53534 | 35979 ft | 449 kts | 224° |
| 2026-04-22 13:17 | 36.95532 | 14.48627 | 35990 ft | 448 kts | 225° |
| 2026-04-22 13:17 | 36.90690 | 14.43733 | 35989 ft | 447 kts | 224° |
| 2026-04-22 13:18 | 36.85938 | 14.38813 | 35987 ft | 443 kts | 230° |
| 2026-04-22 13:18 | 36.81725 | 14.33249 | 35976 ft | 441 kts | 232° |
| 2026-04-22 13:19 | 36.77531 | 14.27674 | 35981 ft | 440 kts | 232° |
| 2026-04-22 13:19 | 36.73332 | 14.22119 | 35979 ft | 440 kts | 232° |
| 2026-04-22 13:20 | 36.69123 | 14.16580 | 35970 ft | 440 kts | 232° |
| 2026-04-22 13:20 | 36.64919 | 14.11045 | 35972 ft | 440 kts | 232° |
| 2026-04-22 13:21 | 36.60721 | 14.05520 | 35965 ft | 439 kts | 232° |
| 2026-04-22 13:21 | 36.56530 | 14.00009 | 35967 ft | 438 kts | 232° |
| 2026-04-22 13:22 | 36.52337 | 13.94513 | 35967 ft | 438 kts | 232° |
| 2026-04-22 13:22 | 36.48138 | 13.89023 | 35967 ft | 438 kts | 232° |
| 2026-04-22 13:23 | 36.43941 | 13.83535 | 35965 ft | 438 kts | 232° |
| 2026-04-22 13:23 | 36.39737 | 13.78046 | 35945 ft | 439 kts | 232° |
| 2026-04-22 13:24 | 36.35528 | 13.72562 | 35960 ft | 439 kts | 231° |
| 2026-04-22 13:24 | 36.31316 | 13.67097 | 35964 ft | 438 kts | 231° |
| 2026-04-22 13:25 | 36.27101 | 13.61630 | 35965 ft | 438 kts | 231° |
| 2026-04-22 13:25 | 36.22886 | 13.56163 | 35958 ft | 439 kts | 231° |
| 2026-04-22 13:26 | 36.18483 | 13.50907 | 35958 ft | 441 kts | 227° |
| 2026-04-22 13:26 | 36.13973 | 13.45760 | 35958 ft | 440 kts | 228° |
| 2026-04-22 13:27 | 36.09556 | 13.40518 | 35962 ft | 440 kts | 229° |
| 2026-04-22 13:27 | 36.05148 | 13.35270 | 35966 ft | 440 kts | 229° |
| 2026-04-22 13:28 | 36.00749 | 13.30088 | 35967 ft | 440 kts | 229° |
| 2026-04-22 13:28 | 35.96304 | 13.24889 | 35950 ft | 440 kts | 228° |
| 2026-04-22 13:29 | 35.91855 | 13.19693 | 35959 ft | 440 kts | 228° |
| 2026-04-22 13:29 | 35.87408 | 13.14494 | 35956 ft | 441 kts | 228° |
| 2026-04-22 13:30 | 35.82956 | 13.09300 | 35955 ft | 441 kts | 228° |
| 2026-04-22 13:30 | 35.78508 | 13.04107 | 35949 ft | 441 kts | 227° |
| 2026-04-22 13:31 | 35.74051 | 12.98927 | 35952 ft | 441 kts | 227° |
| 2026-04-22 13:31 | 35.69594 | 12.93747 | 35957 ft | 441 kts | 227° |
| 2026-04-22 13:32 | 35.65134 | 12.88569 | 35960 ft | 441 kts | 227° |
| 2026-04-22 13:32 | 35.60666 | 12.83406 | 35957 ft | 441 kts | 227° |
| 2026-04-22 13:33 | 35.56193 | 12.78253 | 35947 ft | 441 kts | 227° |
| 2026-04-22 13:33 | 35.51726 | 12.73094 | 35933 ft | 441 kts | 227° |
| 2026-04-22 13:34 | 35.47256 | 12.67932 | 35943 ft | 441 kts | 227° |
| 2026-04-22 13:34 | 35.42777 | 12.62783 | 35954 ft | 441 kts | 227° |
| 2026-04-22 13:35 | 35.38293 | 12.57640 | 35951 ft | 442 kts | 227° |
| 2026-04-22 13:35 | 35.33805 | 12.52504 | 35955 ft | 441 kts | 227° |
| 2026-04-22 13:36 | 35.29320 | 12.47367 | 35957 ft | 441 kts | 227° |
| 2026-04-22 13:36 | 35.24835 | 12.42237 | 35959 ft | 441 kts | 227° |
| 2026-04-22 13:37 | 35.20371 | 12.37148 | 35956 ft | 442 kts | 227° |
| 2026-04-22 13:37 | 35.15875 | 12.32026 | 35953 ft | 442 kts | 226° |
| 2026-04-22 13:38 | 35.11374 | 12.26911 | 35937 ft | 442 kts | 227° |
| 2026-04-22 13:38 | 35.04619 | 12.19254 | 35950 ft | 442 kts | 226° |
| 2026-04-22 13:39 | 35.00116 | 12.14153 | 35949 ft | 442 kts | 226° |
| 2026-04-22 13:39 | 34.95609 | 12.09056 | 35951 ft | 442 kts | 226° |
| 2026-04-22 13:40 | 34.91101 | 12.03964 | 35946 ft | 441 kts | 226° |
| 2026-04-22 13:40 | 34.88871 | 12.01451 | 35651 ft | 432 kts | 226° |
| 2026-04-22 13:40 | 34.86686 | 11.98999 | 34760 ft | 425 kts | 226° |
| 2026-04-22 13:41 | 34.84514 | 11.96561 | 33507 ft | 426 kts | 226° |
| 2026-04-22 13:41 | 34.82369 | 11.94146 | 32327 ft | 425 kts | 226° |
| 2026-04-22 13:41 | 34.80215 | 11.91718 | 31278 ft | 420 kts | 226° |
| 2026-04-22 13:41 | 34.78066 | 11.89299 | 29822 ft | 424 kts | 226° |
| 2026-04-22 13:42 | 34.75884 | 11.86846 | 28158 ft | 428 kts | 226° |
| 2026-04-22 13:42 | 34.73684 | 11.84371 | 26379 ft | 434 kts | 226° |
| 2026-04-22 13:42 | 34.71460 | 11.81869 | 24648 ft | 438 kts | 225° |
| 2026-04-22 13:42 | 34.69215 | 11.79347 | 22797 ft | 441 kts | 225° |
| 2026-04-22 13:43 | 34.66950 | 11.76811 | 20915 ft | 443 kts | 225° |
| 2026-04-22 13:43 | 34.64686 | 11.74276 | 20208 ft | 444 kts | 225° |
| 2026-04-22 13:43 | 34.62403 | 11.71726 | 19668 ft | 447 kts | 225° |
| 2026-04-22 13:43 | 34.60113 | 11.69182 | 19103 ft | 447 kts | 225° |
| 2026-04-22 13:44 | 34.57818 | 11.66635 | 18533 ft | 445 kts | 225° |
| 2026-04-22 13:44 | 34.55540 | 11.64104 | 17957 ft | 443 kts | 225° |
| 2026-04-22 13:44 | 34.53268 | 11.61575 | 17401 ft | 443 kts | 225° |
| 2026-04-22 13:44 | 34.51005 | 11.59055 | 16845 ft | 440 kts | 225° |
| 2026-04-22 13:45 | 34.48758 | 11.56555 | 16263 ft | 437 kts | 225° |
| 2026-04-22 13:45 | 34.46526 | 11.54072 | 15690 ft | 434 kts | 225° |
| 2026-04-22 13:45 | 34.44305 | 11.51606 | 15091 ft | 431 kts | 224° |
| 2026-04-22 13:45 | 34.42103 | 11.49159 | 14497 ft | 428 kts | 224° |
| 2026-04-22 13:46 | 34.39913 | 11.46727 | 13888 ft | 426 kts | 224° |
| 2026-04-22 13:46 | 34.37737 | 11.44314 | 13210 ft | 423 kts | 224° |
| 2026-04-22 13:46 | 34.35572 | 11.41916 | 12584 ft | 421 kts | 224° |
| 2026-04-22 13:46 | 34.33420 | 11.39539 | 11933 ft | 418 kts | 224° |
| 2026-04-22 13:47 | 34.31284 | 11.37177 | 11287 ft | 415 kts | 224° |
| 2026-04-22 13:47 | 34.29159 | 11.34829 | 10699 ft | 412 kts | 224° |
| 2026-04-22 13:47 | 34.27046 | 11.32492 | 10375 ft | 412 kts | 224° |
| 2026-04-22 13:47 | 34.24963 | 11.30193 | 9962 ft | 410 kts | 224° |
| 2026-04-22 13:48 | 34.22857 | 11.27869 | 9508 ft | 409 kts | 224° |
| 2026-04-22 13:48 | 34.20763 | 11.25561 | 9046 ft | 407 kts | 223° |
| 2026-04-22 13:48 | 34.18677 | 11.23264 | 8576 ft | 404 kts | 223° |
| 2026-04-22 13:48 | 34.16605 | 11.20982 | 8145 ft | 402 kts | 223° |
| 2026-04-22 13:49 | 34.14549 | 11.18719 | 7704 ft | 399 kts | 223° |
| 2026-04-22 13:49 | 34.12503 | 11.16473 | 7265 ft | 396 kts | 223° |
| 2026-04-22 13:49 | 34.10468 | 11.14242 | 6837 ft | 394 kts | 223° |
| 2026-04-22 13:49 | 34.08444 | 11.12024 | 6415 ft | 392 kts | 223° |
| 2026-04-22 13:50 | 34.07085 | 11.10533 | 6117 ft | 390 kts | 223° |
| 2026-04-22 13:50 | 34.05084 | 11.08339 | 5670 ft | 387 kts | 223° |
| 2026-04-22 13:50 | 34.03124 | 11.06193 | 5227 ft | 384 kts | 223° |
| 2026-04-22 13:50 | 34.01156 | 11.04037 | 4798 ft | 381 kts | 222° |
| 2026-04-22 13:51 | 33.99206 | 11.01902 | 4361 ft | 377 kts | 222° |
| 2026-04-22 13:51 | 33.97271 | 10.99786 | 3911 ft | 375 kts | 222° |
| 2026-04-22 13:51 | 33.95363 | 10.97704 | 3460 ft | 357 kts | 222° |
| 2026-04-22 13:51 | 33.93589 | 10.95769 | 3044 ft | 334 kts | 221° |
| 2026-04-22 13:52 | 33.91917 | 10.93945 | 2605 ft | 314 kts | 221° |
| 2026-04-22 13:52 | 33.90347 | 10.92233 | 2169 ft | 296 kts | 221° |
| 2026-04-22 13:52 | 33.88862 | 10.90608 | 1740 ft | 281 kts | 223° |
| 2026-04-22 13:52 | 33.87661 | 10.88902 | 1518 ft | 252 kts | 250° |
| 2026-04-22 13:53 | 33.87591 | 10.86966 | 1366 ft | 224 kts | 281° |
| 2026-04-22 13:53 | 33.87739 | 10.85132 | 918 ft | 217 kts | 269° |
| 2026-04-22 13:53 | 33.87656 | 10.83382 | 672 ft | 202 kts | 268° |
| 2026-04-22 13:53 | 33.87647 | 10.81720 | 402 ft | 193 kts | 271° |
| 2026-04-22 13:54 | 33.87601 | 10.80166 | 171 ft | 175 kts | 272° |
| 2026-04-22 13:54 | 33.87569 | 10.78796 | 26 ft | 150 kts | 270° |
| 2026-04-22 13:54 | 33.87548 | 10.77891 | 23 ft | 52 kts | 267° |
| 2026-04-22 13:54 | 33.87508 | 10.77732 | 23 ft | 6 kts | 202° |
| 2026-04-22 13:55 | 33.87434 | 10.77727 | 23 ft | 14 kts | 184° |
| 2026-04-22 13:55 | 33.87344 | 10.77723 | 25 ft | 10 kts | 180° |
| 2026-04-22 13:55 | 33.87336 | 10.77723 | 24 ft | 0 kts | 180° |